createdAt,value
2019-05-12T00:02:17.761Z,8.44
2019-05-12T00:08:23.452Z,8.37
2019-05-12T00:14:29.968Z,8.30
2019-05-12T00:20:35.732Z,8.24
2019-05-12T00:26:42.989Z,8.18
2019-05-12T00:32:49.614Z,8.09
2019-05-12T00:38:57.883Z,8.07
2019-05-12T00:45:04.535Z,8.05
2019-05-12T00:51:10.430Z,8.04
2019-05-12T00:57:18.183Z,8.05
2019-05-12T01:03:23.876Z,7.99
2019-05-12T01:09:29.682Z,8.00
2019-05-12T01:15:37.757Z,7.98
2019-05-12T01:21:43.900Z,8.08
2019-05-12T01:27:49.642Z,8.12
2019-05-12T01:33:55.678Z,8.12
2019-05-12T01:40:01.459Z,8.13
2019-05-12T01:46:08.833Z,8.10
2019-05-12T01:52:14.763Z,8.14
2019-05-12T01:58:20.528Z,8.19
2019-05-12T02:04:28.460Z,8.20
2019-05-12T02:10:34.466Z,8.19
2019-05-12T02:16:40.309Z,8.27
2019-05-12T02:22:47.742Z,8.22
2019-05-12T02:28:53.740Z,8.23
2019-05-12T02:34:59.513Z,8.28
2019-05-12T02:41:05.587Z,8.21
2019-05-12T02:47:11.691Z,8.24
2019-05-12T02:53:17.736Z,8.21
2019-05-12T02:59:25.259Z,8.12
2019-05-12T03:05:34.874Z,8.21
2019-05-12T03:11:40.159Z,8.10
2019-05-12T03:17:45.941Z,8.07
2019-05-12T03:23:54.868Z,8.05
2019-05-12T03:29:59.699Z,8.01
2019-05-12T03:36:09.106Z,8.02
2019-05-12T03:42:14.548Z,7.99
2019-05-12T03:48:20.782Z,7.93
2019-05-12T03:54:26.606Z,8.00
2019-05-12T04:00:35.561Z,8.02
2019-05-12T04:06:40.363Z,8.04
2019-05-12T04:12:46.223Z,8.11
2019-05-12T04:18:54.947Z,8.19
2019-05-12T04:24:59.609Z,8.23
2019-05-12T04:31:05.734Z,8.23
2019-05-12T04:37:14.553Z,8.26
2019-05-12T04:43:19.389Z,8.33
2019-05-12T04:49:25.371Z,8.34
2019-05-12T04:55:31.343Z,8.38
2019-05-12T05:01:37.320Z,8.46
2019-05-12T05:07:44.849Z,8.57
2019-05-12T05:13:51.066Z,8.59
2019-05-12T05:19:57.421Z,8.57
2019-05-12T05:26:03.446Z,8.55
2019-05-12T05:32:09.304Z,8.58
2019-05-12T05:38:20.527Z,8.63
2019-05-12T05:44:23.991Z,8.83
2019-05-12T05:50:30.623Z,8.95
2019-05-12T05:56:42.762Z,9.16
2019-05-12T06:02:44.781Z,9.13
2019-05-12T06:09:00.611Z,9.28
2019-05-12T06:15:09.047Z,9.50
2019-05-12T06:21:14.906Z,9.66
2019-05-12T06:27:21.247Z,9.39
2019-05-12T06:33:31.634Z,9.58
2019-05-12T06:39:34.737Z,9.85
2019-05-12T06:45:44.873Z,10.01
2019-05-12T06:51:48.165Z,10.27
2019-05-12T06:57:54.224Z,10.41
2019-05-12T07:04:00.620Z,10.87
2019-05-12T07:10:15.127Z,11.02
2019-05-12T07:16:22.898Z,11.38
2019-05-12T07:22:25.889Z,11.46
2019-05-12T07:28:36.197Z,10.99
2019-05-12T07:34:39.384Z,10.60
2019-05-12T07:40:47.038Z,10.93
2019-05-12T07:46:54.066Z,11.24
2019-05-12T07:53:00.135Z,10.88
2019-05-12T07:59:05.920Z,10.68
2019-05-12T08:05:19.452Z,10.59
2019-05-12T08:11:20.403Z,10.65
2019-05-12T08:17:26.208Z,11.16
2019-05-12T08:23:33.902Z,11.60
2019-05-12T08:29:39.496Z,11.83
2019-05-12T08:35:45.479Z,12.27
2019-05-12T08:41:53.463Z,12.37
2019-05-12T08:48:03.704Z,12.51
2019-05-12T08:54:09.348Z,12.68
2019-05-12T09:00:17.751Z,12.29
2019-05-12T09:06:23.910Z,12.26
2019-05-12T09:12:29.740Z,12.25
2019-05-12T09:18:39.261Z,12.40
2019-05-12T09:24:44.124Z,12.51
2019-05-12T09:30:50.018Z,12.70
2019-05-12T09:36:59.731Z,12.66
2019-05-12T09:43:08.731Z,12.80
2019-05-12T09:49:11.155Z,12.68
2019-05-12T09:55:17.181Z,12.61
2019-05-12T10:01:24.188Z,12.95
2019-05-12T10:07:30.155Z,13.27
2019-05-12T10:13:36.158Z,13.57
2019-05-12T10:19:43.383Z,13.93
2019-05-12T10:25:49.278Z,14.26
2019-05-12T10:31:55.210Z,14.05
2019-05-12T10:38:08.573Z,14.26
2019-05-12T10:44:09.086Z,14.64
2019-05-12T10:50:18.967Z,14.71
2019-05-12T10:56:25.067Z,14.38
2019-05-12T11:02:33.302Z,14.48
2019-05-12T11:08:41.268Z,14.73
2019-05-12T11:14:46.658Z,15.04
2019-05-12T11:20:54.409Z,14.99
2019-05-12T11:27:00.126Z,14.98
2019-05-12T11:33:05.979Z,14.87
2019-05-12T11:39:14.113Z,14.88
2019-05-12T11:45:19.587Z,14.87
2019-05-12T11:51:29.185Z,14.83
2019-05-12T11:57:34.137Z,15.34
2019-05-12T12:03:40.323Z,15.93
2019-05-12T12:09:49.342Z,16.22
2019-05-12T12:15:54.539Z,15.54
2019-05-12T12:22:04.403Z,15.41
2019-05-12T12:28:10.153Z,15.64
2019-05-12T12:34:23.979Z,15.94
2019-05-12T12:40:24.079Z,15.45
2019-05-12T12:46:29.880Z,15.30
2019-05-12T12:52:38.631Z,15.89
2019-05-12T12:58:44.026Z,15.85
2019-05-12T13:04:50.480Z,15.91
2019-05-12T13:10:56.451Z,15.71
2019-05-12T13:17:04.145Z,15.95
2019-05-12T13:23:09.857Z,16.83
2019-05-12T13:29:16.060Z,16.66
2019-05-12T13:35:23.765Z,16.62
2019-05-12T13:41:29.956Z,16.07
2019-05-12T13:47:39.893Z,15.97
2019-05-12T13:53:46.454Z,15.79
2019-05-12T13:59:54.289Z,15.97
2019-05-12T14:06:03.585Z,16.37
2019-05-12T14:12:10.014Z,16.46
2019-05-12T14:18:20.502Z,17.07
2019-05-12T14:24:23.672Z,17.38
2019-05-12T14:30:29.616Z,16.88
2019-05-12T14:36:35.888Z,17.00
2019-05-12T14:42:43.981Z,16.95
2019-05-12T14:48:50.577Z,16.51
2019-05-12T14:54:56.821Z,16.25
2019-05-12T15:01:03.941Z,15.99
2019-05-12T15:07:10.286Z,15.66
2019-05-12T15:13:17.196Z,15.48
2019-05-12T15:19:27.863Z,15.21
2019-05-12T15:25:35.447Z,15.20
2019-05-12T15:31:52.475Z,15.19
2019-05-12T15:37:46.446Z,15.18
2019-05-12T15:43:55.853Z,15.28
2019-05-12T15:50:03.882Z,15.53
2019-05-12T15:56:14.392Z,15.52
2019-05-12T16:02:17.469Z,15.48
2019-05-12T16:08:24.464Z,15.29
2019-05-12T16:14:36.088Z,15.33
2019-05-12T16:20:37.995Z,16.32
2019-05-12T16:26:51.592Z,16.74
2019-05-12T16:32:51.478Z,17.25
2019-05-12T16:39:00.133Z,17.76
2019-05-12T16:45:09.781Z,17.08
2019-05-12T16:51:13.956Z,16.94
2019-05-12T16:57:20.473Z,16.87
2019-05-12T17:03:26.459Z,16.40
2019-05-12T17:09:33.212Z,16.08
2019-05-12T17:15:39.219Z,16.06
2019-05-12T17:21:49.452Z,15.91
2019-05-12T17:27:52.740Z,15.70
2019-05-12T17:34:00.260Z,15.56
2019-05-12T17:40:09.372Z,15.45
2019-05-12T17:46:18.175Z,15.25
2019-05-12T17:52:23.420Z,15.22
2019-05-12T17:58:34.914Z,15.10
2019-05-12T18:04:37.471Z,14.95
2019-05-12T18:10:43.809Z,14.95
2019-05-12T18:16:55.575Z,14.95
2019-05-12T18:22:57.309Z,14.86
2019-05-12T18:29:04.147Z,14.78
2019-05-12T18:35:10.438Z,14.75
2019-05-12T18:41:16.308Z,14.61
2019-05-12T18:47:31.341Z,14.63
2019-05-12T18:53:31.930Z,14.49
2019-05-12T18:59:37.719Z,14.50
2019-05-12T19:05:43.924Z,14.38
2019-05-12T19:11:50.159Z,14.34
2019-05-12T19:17:56.752Z,14.24
2019-05-12T19:24:03.591Z,14.09
2019-05-12T19:30:09.946Z,13.93
2019-05-12T19:36:16.193Z,13.75
2019-05-12T19:42:24.408Z,13.63
2019-05-12T19:48:35.035Z,13.50
2019-05-12T19:54:38.723Z,13.24
2019-05-12T20:00:45.429Z,13.01
2019-05-12T20:06:51.429Z,12.86
2019-05-12T20:12:57.281Z,12.71
2019-05-12T20:19:04.325Z,12.57
2019-05-12T20:25:11.210Z,12.50
2019-05-12T20:31:17.637Z,12.37
2019-05-12T20:37:24.434Z,12.31
2019-05-12T20:43:33.186Z,12.26
2019-05-12T20:49:45.086Z,12.17
2019-05-12T20:55:46.040Z,11.99
2019-05-12T21:01:51.854Z,11.83
2019-05-12T21:08:05.397Z,11.72
2019-05-12T21:14:10.104Z,11.58
2019-05-12T21:20:16.512Z,11.46
2019-05-12T21:26:21.624Z,11.32
2019-05-12T21:32:27.877Z,11.24
2019-05-12T21:38:34.208Z,11.20
2019-05-12T21:44:41.306Z,11.04
2019-05-12T21:50:48.075Z,10.95
2019-05-12T21:56:54.354Z,10.85
2019-05-12T22:03:02.655Z,10.78
2019-05-12T22:09:11.505Z,10.64
2019-05-12T22:15:28.595Z,10.56
2019-05-12T22:21:35.767Z,10.41
2019-05-12T22:27:41.173Z,10.30
2019-05-12T22:33:52.246Z,10.25
2019-05-12T22:39:54.588Z,10.14
2019-05-12T22:46:00.345Z,10.06
2019-05-12T22:52:07.219Z,9.94
2019-05-12T22:58:20.536Z,9.87
2019-05-12T23:04:25.967Z,9.79
2019-05-12T23:10:29.132Z,9.70
2019-05-12T23:16:35.180Z,9.60
2019-05-12T23:22:43.670Z,9.51
2019-05-12T23:28:50.295Z,9.39
2019-05-12T23:34:58.500Z,9.29
2019-05-12T23:41:04.221Z,9.21
2019-05-12T23:47:10.355Z,9.10
2019-05-12T23:53:16.650Z,9.01
2019-05-12T23:59:23.981Z,8.95
